sensor_id;sensor_type;location;lat;lon;timestamp;P1;durP1;ratioP1;P2;durP2;ratioP2
4873;SDS011;2451;49.970;9.068;2023-05-14T00:00:35;9.23;;;6.68;;
4873;SDS011;2451;49.970;9.068;2023-05-14T00:03:00;12.32;;;6.85;;
4873;SDS011;2451;49.970;9.068;2023-05-14T00:05:26;9.02;;;6.63;;
4873;SDS011;2451;49.970;9.068;2023-05-14T00:07:51;10.80;;;6.60;;
4873;SDS011;2451;49.970;9.068;2023-05-14T00:10:17;7.88;;;6.60;;
4873;SDS011;2451;49.970;9.068;2023-05-14T00:12:44;7.80;;;6.20;;
4873;SDS011;2451;49.970;9.068;2023-05-14T00:15:10;7.68;;;6.45;;
4873;SDS011;2451;49.970;9.068;2023-05-14T00:17:35;8.57;;;6.43;;
4873;SDS011;2451;49.970;9.068;2023-05-14T00:20:02;8.38;;;5.97;;
4873;SDS011;2451;49.970;9.068;2023-05-14T00:22:31;7.15;;;6.25;;
4873;SDS011;2451;49.970;9.068;2023-05-14T00:24:57;8.93;;;6.70;;
4873;SDS011;2451;49.970;9.068;2023-05-14T00:27:22;7.68;;;6.00;;
4873;SDS011;2451;49.970;9.068;2023-05-14T00:29:48;8.15;;;6.32;;
4873;SDS011;2451;49.970;9.068;2023-05-14T00:32:13;8.63;;;5.93;;
4873;SDS011;2451;49.970;9.068;2023-05-14T00:34:39;8.48;;;6.55;;
4873;SDS011;2451;49.970;9.068;2023-05-14T00:37:04;9.40;;;6.15;;
4873;SDS011;2451;49.970;9.068;2023-05-14T00:39:30;8.90;;;5.85;;
4873;SDS011;2451;49.970;9.068;2023-05-14T00:41:55;6.68;;;5.82;;
4873;SDS011;2451;49.970;9.068;2023-05-14T00:44:21;6.45;;;5.65;;
4873;SDS011;2451;49.970;9.068;2023-05-14T00:46:47;8.05;;;6.60;;
4873;SDS011;2451;49.970;9.068;2023-05-14T00:49:12;7.53;;;5.45;;
4873;SDS011;2451;49.970;9.068;2023-05-14T00:51:39;8.10;;;6.05;;
4873;SDS011;2451;49.970;9.068;2023-05-14T00:54:05;8.07;;;5.55;;
4873;SDS011;2451;49.970;9.068;2023-05-14T00:56:31;8.07;;;5.78;;
4873;SDS011;2451;49.970;9.068;2023-05-14T00:58:58;8.82;;;5.47;;
4873;SDS011;2451;49.970;9.068;2023-05-14T01:01:23;9.18;;;5.85;;
4873;SDS011;2451;49.970;9.068;2023-05-14T01:03:49;7.93;;;5.45;;
4873;SDS011;2451;49.970;9.068;2023-05-14T01:06:34;6.72;;;5.53;;
4873;SDS011;2451;49.970;9.068;2023-05-14T01:09:16;6.53;;;5.57;;
4873;SDS011;2451;49.970;9.068;2023-05-14T01:12:10;7.00;;;5.72;;
4873;SDS011;2451;49.970;9.068;2023-05-14T01:15:01;6.70;;;5.68;;
4873;SDS011;2451;49.970;9.068;2023-05-14T01:17:37;7.18;;;5.60;;
4873;SDS011;2451;49.970;9.068;2023-05-14T01:20:06;6.97;;;5.28;;
4873;SDS011;2451;49.970;9.068;2023-05-14T01:22:33;7.15;;;5.90;;
4873;SDS011;2451;49.970;9.068;2023-05-14T01:24:58;6.40;;;5.18;;
4873;SDS011;2451;49.970;9.068;2023-05-14T01:27:24;8.68;;;5.60;;
4873;SDS011;2451;49.970;9.068;2023-05-14T01:30:30;6.65;;;5.25;;
4873;SDS011;2451;49.970;9.068;2023-05-14T01:32:59;7.10;;;5.80;;
4873;SDS011;2451;49.970;9.068;2023-05-14T01:35:34;6.05;;;5.32;;
4873;SDS011;2451;49.970;9.068;2023-05-14T01:38:01;6.57;;;5.53;;
4873;SDS011;2451;49.970;9.068;2023-05-14T01:40:37;8.30;;;5.57;;
4873;SDS011;2451;49.970;9.068;2023-05-14T01:43:04;7.70;;;5.90;;
4873;SDS011;2451;49.970;9.068;2023-05-14T01:45:30;7.88;;;5.95;;
4873;SDS011;2451;49.970;9.068;2023-05-14T01:47:58;8.73;;;6.00;;
4873;SDS011;2451;49.970;9.068;2023-05-14T01:50:24;8.20;;;5.97;;
4873;SDS011;2451;49.970;9.068;2023-05-14T01:52:50;8.85;;;5.68;;
4873;SDS011;2451;49.970;9.068;2023-05-14T01:55:17;11.10;;;5.50;;
4873;SDS011;2451;49.970;9.068;2023-05-14T01:57:43;7.30;;;5.50;;
4873;SDS011;2451;49.970;9.068;2023-05-14T02:00:08;6.13;;;5.22;;
4873;SDS011;2451;49.970;9.068;2023-05-14T02:02:34;6.40;;;4.75;;
4873;SDS011;2451;49.970;9.068;2023-05-14T02:05:00;7.97;;;5.45;;
4873;SDS011;2451;49.970;9.068;2023-05-14T02:07:25;6.57;;;5.50;;
4873;SDS011;2451;49.970;9.068;2023-05-14T02:09:51;7.50;;;5.20;;
4873;SDS011;2451;49.970;9.068;2023-05-14T02:12:16;6.63;;;5.50;;
4873;SDS011;2451;49.970;9.068;2023-05-14T02:14:42;7.10;;;5.78;;
4873;SDS011;2451;49.970;9.068;2023-05-14T02:17:07;8.25;;;5.70;;
4873;SDS011;2451;49.970;9.068;2023-05-14T02:19:33;9.23;;;5.35;;
4873;SDS011;2451;49.970;9.068;2023-05-14T02:21:58;7.57;;;5.38;;
4873;SDS011;2451;49.970;9.068;2023-05-14T02:24:25;7.57;;;5.70;;
4873;SDS011;2451;49.970;9.068;2023-05-14T02:26:50;7.68;;;5.70;;
4873;SDS011;2451;49.970;9.068;2023-05-14T02:29:16;6.30;;;5.53;;
4873;SDS011;2451;49.970;9.068;2023-05-14T02:31:42;8.18;;;5.57;;
4873;SDS011;2451;49.970;9.068;2023-05-14T02:34:07;6.88;;;5.38;;
4873;SDS011;2451;49.970;9.068;2023-05-14T02:36:33;9.88;;;5.80;;
4873;SDS011;2451;49.970;9.068;2023-05-14T02:38:58;9.40;;;5.20;;
4873;SDS011;2451;49.970;9.068;2023-05-14T02:41:28;9.15;;;6.07;;
4873;SDS011;2451;49.970;9.068;2023-05-14T02:43:54;7.78;;;5.75;;
4873;SDS011;2451;49.970;9.068;2023-05-14T02:46:19;7.72;;;5.30;;
4873;SDS011;2451;49.970;9.068;2023-05-14T02:48:44;8.48;;;5.35;;
4873;SDS011;2451;49.970;9.068;2023-05-14T02:51:10;6.80;;;5.90;;
4873;SDS011;2451;49.970;9.068;2023-05-14T02:53:36;9.57;;;5.32;;
4873;SDS011;2451;49.970;9.068;2023-05-14T02:56:01;7.20;;;5.75;;
4873;SDS011;2451;49.970;9.068;2023-05-14T02:58:27;6.72;;;5.50;;
4873;SDS011;2451;49.970;9.068;2023-05-14T03:00:52;6.75;;;5.30;;
4873;SDS011;2451;49.970;9.068;2023-05-14T03:03:18;6.70;;;5.53;;
4873;SDS011;2451;49.970;9.068;2023-05-14T03:05:44;7.03;;;5.35;;
4873;SDS011;2451;49.970;9.068;2023-05-14T03:08:09;6.88;;;5.70;;
4873;SDS011;2451;49.970;9.068;2023-05-14T03:10:35;7.05;;;5.53;;
4873;SDS011;2451;49.970;9.068;2023-05-14T03:13:01;7.50;;;5.75;;
4873;SDS011;2451;49.970;9.068;2023-05-14T03:15:26;6.35;;;5.20;;
4873;SDS011;2451;49.970;9.068;2023-05-14T03:17:52;6.57;;;5.35;;
4873;SDS011;2451;49.970;9.068;2023-05-14T03:20:17;8.15;;;5.35;;
4873;SDS011;2451;49.970;9.068;2023-05-14T03:22:43;7.05;;;5.35;;
4873;SDS011;2451;49.970;9.068;2023-05-14T03:25:08;7.53;;;5.72;;
4873;SDS011;2451;49.970;9.068;2023-05-14T03:27:34;6.60;;;5.70;;
4873;SDS011;2451;49.970;9.068;2023-05-14T03:30:00;7.40;;;5.90;;
4873;SDS011;2451;49.970;9.068;2023-05-14T03:32:25;7.32;;;5.68;;
4873;SDS011;2451;49.970;9.068;2023-05-14T03:34:51;6.32;;;5.38;;
4873;SDS011;2451;49.970;9.068;2023-05-14T03:37:17;9.23;;;5.82;;
4873;SDS011;2451;49.970;9.068;2023-05-14T03:39:42;7.03;;;5.78;;
4873;SDS011;2451;49.970;9.068;2023-05-14T03:42:08;6.78;;;5.68;;
4873;SDS011;2451;49.970;9.068;2023-05-14T03:44:33;7.32;;;5.47;;
4873;SDS011;2451;49.970;9.068;2023-05-14T03:46:59;6.43;;;5.25;;
4873;SDS011;2451;49.970;9.068;2023-05-14T03:49:25;7.53;;;5.93;;
4873;SDS011;2451;49.970;9.068;2023-05-14T03:51:50;8.60;;;5.90;;
4873;SDS011;2451;49.970;9.068;2023-05-14T03:54:16;8.55;;;5.53;;
4873;SDS011;2451;49.970;9.068;2023-05-14T03:56:41;7.70;;;5.88;;
4873;SDS011;2451;49.970;9.068;2023-05-14T03:59:07;8.98;;;5.85;;
4873;SDS011;2451;49.970;9.068;2023-05-14T04:01:32;7.22;;;5.60;;
4873;SDS011;2451;49.970;9.068;2023-05-14T04:03:58;6.75;;;5.50;;
4873;SDS011;2451;49.970;9.068;2023-05-14T04:06:23;7.60;;;5.53;;
4873;SDS011;2451;49.970;9.068;2023-05-14T04:08:49;7.88;;;5.88;;
4873;SDS011;2451;49.970;9.068;2023-05-14T04:11:15;7.88;;;5.75;;
4873;SDS011;2451;49.970;9.068;2023-05-14T04:13:40;6.57;;;5.70;;
4873;SDS011;2451;49.970;9.068;2023-05-14T04:16:06;7.78;;;5.72;;
4873;SDS011;2451;49.970;9.068;2023-05-14T04:18:31;7.85;;;5.60;;
4873;SDS011;2451;49.970;9.068;2023-05-14T04:20:59;9.63;;;5.85;;
4873;SDS011;2451;49.970;9.068;2023-05-14T04:23:25;7.72;;;5.95;;
4873;SDS011;2451;49.970;9.068;2023-05-14T04:25:50;7.32;;;6.03;;
4873;SDS011;2451;49.970;9.068;2023-05-14T04:28:16;7.30;;;5.60;;
4873;SDS011;2451;49.970;9.068;2023-05-14T04:30:42;7.25;;;5.53;;
4873;SDS011;2451;49.970;9.068;2023-05-14T04:33:07;8.00;;;5.55;;
4873;SDS011;2451;49.970;9.068;2023-05-14T04:35:33;6.70;;;5.45;;
4873;SDS011;2451;49.970;9.068;2023-05-14T04:37:58;7.13;;;5.88;;
4873;SDS011;2451;49.970;9.068;2023-05-14T04:40:24;7.57;;;5.38;;
4873;SDS011;2451;49.970;9.068;2023-05-14T04:42:49;7.50;;;5.93;;
4873;SDS011;2451;49.970;9.068;2023-05-14T04:45:15;7.00;;;5.63;;
4873;SDS011;2451;49.970;9.068;2023-05-14T04:47:40;6.75;;;5.50;;
4873;SDS011;2451;49.970;9.068;2023-05-14T04:50:06;7.93;;;5.68;;
4873;SDS011;2451;49.970;9.068;2023-05-14T04:52:33;6.55;;;5.53;;
4873;SDS011;2451;49.970;9.068;2023-05-14T04:54:59;8.40;;;5.25;;
4873;SDS011;2451;49.970;9.068;2023-05-14T04:57:25;7.30;;;5.35;;
4873;SDS011;2451;49.970;9.068;2023-05-14T04:59:50;6.32;;;5.38;;
4873;SDS011;2451;49.970;9.068;2023-05-14T05:02:16;7.45;;;5.57;;
4873;SDS011;2451;49.970;9.068;2023-05-14T05:04:41;6.60;;;5.60;;
4873;SDS011;2451;49.970;9.068;2023-05-14T05:07:07;9.27;;;5.82;;
4873;SDS011;2451;49.970;9.068;2023-05-14T05:09:32;6.57;;;5.78;;
4873;SDS011;2451;49.970;9.068;2023-05-14T05:11:58;8.40;;;5.63;;
4873;SDS011;2451;49.970;9.068;2023-05-14T05:14:25;8.90;;;6.28;;
4873;SDS011;2451;49.970;9.068;2023-05-14T05:16:51;8.32;;;6.45;;
4873;SDS011;2451;49.970;9.068;2023-05-14T05:19:16;8.23;;;6.20;;
4873;SDS011;2451;49.970;9.068;2023-05-14T05:21:42;7.82;;;6.47;;
4873;SDS011;2451;49.970;9.068;2023-05-14T05:24:07;8.00;;;6.65;;
4873;SDS011;2451;49.970;9.068;2023-05-14T05:26:33;7.43;;;6.35;;
4873;SDS011;2451;49.970;9.068;2023-05-14T05:29:01;7.13;;;5.90;;
4873;SDS011;2451;49.970;9.068;2023-05-14T05:31:27;7.72;;;6.20;;
4873;SDS011;2451;49.970;9.068;2023-05-14T05:33:53;7.57;;;5.93;;
4873;SDS011;2451;49.970;9.068;2023-05-14T05:36:18;8.63;;;6.25;;
4873;SDS011;2451;49.970;9.068;2023-05-14T05:38:44;7.53;;;5.78;;
4873;SDS011;2451;49.970;9.068;2023-05-14T05:41:10;7.55;;;6.07;;
4873;SDS011;2451;49.970;9.068;2023-05-14T05:43:35;7.80;;;6.35;;
4873;SDS011;2451;49.970;9.068;2023-05-14T05:46:01;8.68;;;6.53;;
4873;SDS011;2451;49.970;9.068;2023-05-14T05:48:26;9.95;;;7.38;;
4873;SDS011;2451;49.970;9.068;2023-05-14T05:50:52;10.15;;;7.40;;
4873;SDS011;2451;49.970;9.068;2023-05-14T05:53:18;9.05;;;6.90;;
4873;SDS011;2451;49.970;9.068;2023-05-14T05:55:43;11.70;;;7.65;;
4873;SDS011;2451;49.970;9.068;2023-05-14T05:58:09;9.52;;;7.47;;
4873;SDS011;2451;49.970;9.068;2023-05-14T06:00:34;8.45;;;7.50;;
4873;SDS011;2451;49.970;9.068;2023-05-14T06:03:00;9.23;;;7.68;;
4873;SDS011;2451;49.970;9.068;2023-05-14T06:05:26;11.30;;;7.68;;
4873;SDS011;2451;49.970;9.068;2023-05-14T06:07:51;9.60;;;7.95;;
4873;SDS011;2451;49.970;9.068;2023-05-14T06:10:20;9.15;;;8.15;;
4873;SDS011;2451;49.970;9.068;2023-05-14T06:12:46;11.80;;;7.85;;
4873;SDS011;2451;49.970;9.068;2023-05-14T06:15:11;11.10;;;8.18;;
4873;SDS011;2451;49.970;9.068;2023-05-14T06:17:37;9.55;;;8.43;;
4873;SDS011;2451;49.970;9.068;2023-05-14T06:20:03;9.45;;;8.45;;
4873;SDS011;2451;49.970;9.068;2023-05-14T06:22:32;9.68;;;8.40;;
4873;SDS011;2451;49.970;9.068;2023-05-14T06:24:57;9.63;;;8.55;;
4873;SDS011;2451;49.970;9.068;2023-05-14T06:27:23;11.18;;;8.88;;
4873;SDS011;2451;49.970;9.068;2023-05-14T06:29:48;11.77;;;8.52;;
4873;SDS011;2451;49.970;9.068;2023-05-14T06:32:14;9.88;;;8.40;;
4873;SDS011;2451;49.970;9.068;2023-05-14T06:34:40;8.25;;;6.85;;
4873;SDS011;2451;49.970;9.068;2023-05-14T06:37:06;6.45;;;5.47;;
4873;SDS011;2451;49.970;9.068;2023-05-14T06:39:33;9.05;;;6.25;;
4873;SDS011;2451;49.970;9.068;2023-05-14T06:41:59;9.73;;;6.90;;
4873;SDS011;2451;49.970;9.068;2023-05-14T06:44:24;6.80;;;5.90;;
4873;SDS011;2451;49.970;9.068;2023-05-14T06:46:51;6.47;;;5.32;;
4873;SDS011;2451;49.970;9.068;2023-05-14T06:49:17;7.20;;;6.13;;
4873;SDS011;2451;49.970;9.068;2023-05-14T06:51:42;6.32;;;5.38;;
4873;SDS011;2451;49.970;9.068;2023-05-14T06:54:08;9.20;;;5.30;;
4873;SDS011;2451;49.970;9.068;2023-05-14T06:56:33;5.90;;;5.00;;
4873;SDS011;2451;49.970;9.068;2023-05-14T06:58:59;6.18;;;4.82;;
4873;SDS011;2451;49.970;9.068;2023-05-14T07:01:24;8.27;;;5.40;;
4873;SDS011;2451;49.970;9.068;2023-05-14T07:03:50;7.00;;;5.50;;
4873;SDS011;2451;49.970;9.068;2023-05-14T07:06:15;6.30;;;4.80;;
4873;SDS011;2451;49.970;9.068;2023-05-14T07:08:42;6.38;;;4.70;;
4873;SDS011;2451;49.970;9.068;2023-05-14T07:11:09;6.18;;;4.70;;
4873;SDS011;2451;49.970;9.068;2023-05-14T07:13:35;7.80;;;4.72;;
4873;SDS011;2451;49.970;9.068;2023-05-14T07:16:01;6.80;;;4.80;;
4873;SDS011;2451;49.970;9.068;2023-05-14T07:18:26;5.93;;;4.57;;
4873;SDS011;2451;49.970;9.068;2023-05-14T07:20:52;7.50;;;5.20;;
4873;SDS011;2451;49.970;9.068;2023-05-14T07:23:18;8.35;;;4.65;;
4873;SDS011;2451;49.970;9.068;2023-05-14T07:25:43;6.57;;;4.47;;
4873;SDS011;2451;49.970;9.068;2023-05-14T07:28:09;6.15;;;4.53;;
4873;SDS011;2451;49.970;9.068;2023-05-14T07:30:34;6.45;;;4.32;;
4873;SDS011;2451;49.970;9.068;2023-05-14T07:33:00;5.13;;;4.20;;
4873;SDS011;2451;49.970;9.068;2023-05-14T07:35:25;5.80;;;4.18;;
4873;SDS011;2451;49.970;9.068;2023-05-14T07:37:51;4.90;;;3.90;;
4873;SDS011;2451;49.970;9.068;2023-05-14T07:40:16;5.50;;;4.47;;
4873;SDS011;2451;49.970;9.068;2023-05-14T07:42:42;6.43;;;4.10;;
4873;SDS011;2451;49.970;9.068;2023-05-14T07:45:08;5.85;;;3.90;;
4873;SDS011;2451;49.970;9.068;2023-05-14T07:47:33;4.80;;;3.85;;
4873;SDS011;2451;49.970;9.068;2023-05-14T07:49:59;6.07;;;4.22;;
4873;SDS011;2451;49.970;9.068;2023-05-14T07:52:24;5.90;;;4.10;;
4873;SDS011;2451;49.970;9.068;2023-05-14T07:54:50;6.60;;;4.28;;
4873;SDS011;2451;49.970;9.068;2023-05-14T07:57:16;6.05;;;3.67;;
4873;SDS011;2451;49.970;9.068;2023-05-14T07:59:42;6.70;;;4.40;;
4873;SDS011;2451;49.970;9.068;2023-05-14T08:02:08;6.38;;;3.70;;
4873;SDS011;2451;49.970;9.068;2023-05-14T08:04:37;6.20;;;4.07;;
4873;SDS011;2451;49.970;9.068;2023-05-14T08:07:03;5.85;;;3.88;;
4873;SDS011;2451;49.970;9.068;2023-05-14T08:09:29;5.72;;;4.13;;
4873;SDS011;2451;49.970;9.068;2023-05-14T08:11:54;6.90;;;4.25;;
4873;SDS011;2451;49.970;9.068;2023-05-14T08:14:20;5.53;;;3.90;;
4873;SDS011;2451;49.970;9.068;2023-05-14T08:16:45;6.38;;;4.10;;
4873;SDS011;2451;49.970;9.068;2023-05-14T08:19:11;5.20;;;4.00;;
4873;SDS011;2451;49.970;9.068;2023-05-14T08:21:37;7.13;;;4.45;;
4873;SDS011;2451;49.970;9.068;2023-05-14T08:24:03;8.27;;;4.18;;
4873;SDS011;2451;49.970;9.068;2023-05-14T08:26:28;7.75;;;4.28;;
4873;SDS011;2451;49.970;9.068;2023-05-14T08:28:54;5.55;;;4.28;;
4873;SDS011;2451;49.970;9.068;2023-05-14T08:31:19;4.82;;;4.03;;
4873;SDS011;2451;49.970;9.068;2023-05-14T08:33:46;6.85;;;4.00;;
4873;SDS011;2451;49.970;9.068;2023-05-14T08:36:11;5.30;;;4.07;;
4873;SDS011;2451;49.970;9.068;2023-05-14T08:38:37;7.28;;;4.00;;
4873;SDS011;2451;49.970;9.068;2023-05-14T08:41:02;5.75;;;3.85;;
4873;SDS011;2451;49.970;9.068;2023-05-14T08:43:32;5.95;;;3.70;;
4873;SDS011;2451;49.970;9.068;2023-05-14T08:46:08;5.30;;;3.88;;
4873;SDS011;2451;49.970;9.068;2023-05-14T08:48:37;5.40;;;3.70;;
4873;SDS011;2451;49.970;9.068;2023-05-14T08:51:06;6.33;;;4.23;;
4873;SDS011;2451;49.970;9.068;2023-05-14T08:53:32;5.25;;;4.18;;
4873;SDS011;2451;49.970;9.068;2023-05-14T08:55:59;5.13;;;3.70;;
4873;SDS011;2451;49.970;9.068;2023-05-14T08:58:25;5.20;;;3.90;;
4873;SDS011;2451;49.970;9.068;2023-05-14T09:00:52;6.22;;;3.70;;
4873;SDS011;2451;49.970;9.068;2023-05-14T09:03:18;4.93;;;3.50;;
4873;SDS011;2451;49.970;9.068;2023-05-14T09:05:45;4.88;;;3.40;;
4873;SDS011;2451;49.970;9.068;2023-05-14T09:08:12;5.20;;;3.55;;
4873;SDS011;2451;49.970;9.068;2023-05-14T09:10:38;5.32;;;3.88;;
4873;SDS011;2451;49.970;9.068;2023-05-14T09:13:04;5.03;;;3.10;;
4873;SDS011;2451;49.970;9.068;2023-05-14T09:15:30;4.93;;;3.72;;
4873;SDS011;2451;49.970;9.068;2023-05-14T09:17:58;4.28;;;3.13;;
4873;SDS011;2451;49.970;9.068;2023-05-14T09:20:24;4.60;;;3.35;;
4873;SDS011;2451;49.970;9.068;2023-05-14T09:22:53;4.28;;;3.50;;
4873;SDS011;2451;49.970;9.068;2023-05-14T09:25:18;4.53;;;3.40;;
4873;SDS011;2451;49.970;9.068;2023-05-14T09:27:45;4.10;;;3.20;;
4873;SDS011;2451;49.970;9.068;2023-05-14T09:30:14;6.90;;;4.03;;
4873;SDS011;2451;49.970;9.068;2023-05-14T09:32:41;5.57;;;3.58;;
4873;SDS011;2451;49.970;9.068;2023-05-14T09:35:15;4.88;;;3.53;;
4873;SDS011;2451;49.970;9.068;2023-05-14T09:37:43;6.03;;;3.47;;
4873;SDS011;2451;49.970;9.068;2023-05-14T09:40:11;4.00;;;3.00;;
4873;SDS011;2451;49.970;9.068;2023-05-14T09:42:37;4.85;;;3.20;;
4873;SDS011;2451;49.970;9.068;2023-05-14T09:45:03;3.75;;;3.35;;
4873;SDS011;2451;49.970;9.068;2023-05-14T09:47:29;4.88;;;3.15;;
4873;SDS011;2451;49.970;9.068;2023-05-14T09:49:55;5.80;;;3.58;;
4873;SDS011;2451;49.970;9.068;2023-05-14T09:52:22;4.60;;;3.38;;
4873;SDS011;2451;49.970;9.068;2023-05-14T09:54:49;4.63;;;3.25;;
4873;SDS011;2451;49.970;9.068;2023-05-14T09:57:15;5.53;;;3.53;;
4873;SDS011;2451;49.970;9.068;2023-05-14T09:59:41;5.28;;;3.50;;
4873;SDS011;2451;49.970;9.068;2023-05-14T10:02:06;4.70;;;3.30;;
4873;SDS011;2451;49.970;9.068;2023-05-14T10:04:49;4.70;;;3.25;;
4873;SDS011;2451;49.970;9.068;2023-05-14T10:07:18;3.83;;;3.13;;
4873;SDS011;2451;49.970;9.068;2023-05-14T10:09:47;4.43;;;3.22;;
4873;SDS011;2451;49.970;9.068;2023-05-14T10:12:12;7.53;;;3.55;;
4873;SDS011;2451;49.970;9.068;2023-05-14T10:14:46;4.38;;;3.35;;
4873;SDS011;2451;49.970;9.068;2023-05-14T10:17:18;3.67;;;3.20;;
4873;SDS011;2451;49.970;9.068;2023-05-14T10:19:49;7.10;;;3.60;;
4873;SDS011;2451;49.970;9.068;2023-05-14T10:22:21;3.88;;;3.08;;
4873;SDS011;2451;49.970;9.068;2023-05-14T10:24:47;4.10;;;3.00;;
4873;SDS011;2451;49.970;9.068;2023-05-14T10:27:16;4.05;;;2.88;;
4873;SDS011;2451;49.970;9.068;2023-05-14T10:29:46;4.53;;;3.10;;
4873;SDS011;2451;49.970;9.068;2023-05-14T10:32:18;4.80;;;3.30;;
4873;SDS011;2451;49.970;9.068;2023-05-14T10:34:49;6.65;;;3.25;;
4873;SDS011;2451;49.970;9.068;2023-05-14T10:37:16;4.57;;;3.10;;
4873;SDS011;2451;49.970;9.068;2023-05-14T10:39:43;4.43;;;3.28;;
4873;SDS011;2451;49.970;9.068;2023-05-14T10:42:10;4.90;;;3.30;;
4873;SDS011;2451;49.970;9.068;2023-05-14T10:44:56;4.20;;;3.40;;
4873;SDS011;2451;49.970;9.068;2023-05-14T10:47:25;7.00;;;3.40;;
4873;SDS011;2451;49.970;9.068;2023-05-14T10:49:54;4.95;;;3.35;;
4873;SDS011;2451;49.970;9.068;2023-05-14T10:52:21;4.10;;;3.20;;
4873;SDS011;2451;49.970;9.068;2023-05-14T10:54:57;5.18;;;3.38;;
4873;SDS011;2451;49.970;9.068;2023-05-14T10:57:25;5.60;;;3.90;;
4873;SDS011;2451;49.970;9.068;2023-05-14T10:59:53;6.38;;;4.07;;
4873;SDS011;2451;49.970;9.068;2023-05-14T11:02:24;5.05;;;3.53;;
4873;SDS011;2451;49.970;9.068;2023-05-14T11:04:51;5.57;;;3.70;;
4873;SDS011;2451;49.970;9.068;2023-05-14T11:07:26;4.63;;;3.60;;
4873;SDS011;2451;49.970;9.068;2023-05-14T11:09:58;4.30;;;3.30;;
4873;SDS011;2451;49.970;9.068;2023-05-14T11:12:26;5.60;;;3.40;;
4873;SDS011;2451;49.970;9.068;2023-05-14T11:14:52;4.53;;;3.47;;
4873;SDS011;2451;49.970;9.068;2023-05-14T11:17:18;5.03;;;3.63;;
4873;SDS011;2451;49.970;9.068;2023-05-14T11:19:44;4.45;;;3.40;;
4873;SDS011;2451;49.970;9.068;2023-05-14T11:22:10;5.28;;;3.17;;
4873;SDS011;2451;49.970;9.068;2023-05-14T11:24:39;4.15;;;3.50;;
4873;SDS011;2451;49.970;9.068;2023-05-14T11:27:06;5.32;;;3.40;;
4873;SDS011;2451;49.970;9.068;2023-05-14T11:29:32;5.15;;;3.30;;
4873;SDS011;2451;49.970;9.068;2023-05-14T11:31:58;4.72;;;3.20;;
4873;SDS011;2451;49.970;9.068;2023-05-14T11:34:24;3.95;;;3.13;;
4873;SDS011;2451;49.970;9.068;2023-05-14T11:36:49;5.07;;;3.58;;
4873;SDS011;2451;49.970;9.068;2023-05-14T11:39:18;6.18;;;3.63;;
4873;SDS011;2451;49.970;9.068;2023-05-14T11:41:44;4.63;;;3.70;;
4873;SDS011;2451;49.970;9.068;2023-05-14T11:44:10;4.13;;;3.30;;
4873;SDS011;2451;49.970;9.068;2023-05-14T11:46:35;4.95;;;3.45;;
4873;SDS011;2451;49.970;9.068;2023-05-14T11:49:03;4.80;;;3.20;;
4873;SDS011;2451;49.970;9.068;2023-05-14T11:51:30;5.32;;;3.45;;
4873;SDS011;2451;49.970;9.068;2023-05-14T11:53:56;4.40;;;3.45;;
4873;SDS011;2451;49.970;9.068;2023-05-14T11:56:24;5.73;;;4.20;;
4873;SDS011;2451;49.970;9.068;2023-05-14T11:58:54;5.95;;;4.10;;
4873;SDS011;2451;49.970;9.068;2023-05-14T12:01:22;4.28;;;3.40;;
4873;SDS011;2451;49.970;9.068;2023-05-14T12:03:47;4.65;;;3.50;;
4873;SDS011;2451;49.970;9.068;2023-05-14T12:06:14;4.47;;;3.55;;
4873;SDS011;2451;49.970;9.068;2023-05-14T12:08:40;4.22;;;3.47;;
4873;SDS011;2451;49.970;9.068;2023-05-14T12:11:05;6.03;;;3.67;;
4873;SDS011;2451;49.970;9.068;2023-05-14T12:13:32;4.85;;;3.50;;
4873;SDS011;2451;49.970;9.068;2023-05-14T12:15:58;4.35;;;3.40;;
4873;SDS011;2451;49.970;9.068;2023-05-14T12:18:26;5.43;;;3.45;;
4873;SDS011;2451;49.970;9.068;2023-05-14T12:20:54;5.07;;;3.70;;
4873;SDS011;2451;49.970;9.068;2023-05-14T12:23:27;4.72;;;3.50;;
4873;SDS011;2451;49.970;9.068;2023-05-14T12:25:54;5.20;;;3.50;;
4873;SDS011;2451;49.970;9.068;2023-05-14T12:28:21;5.25;;;3.67;;
4873;SDS011;2451;49.970;9.068;2023-05-14T12:30:47;4.97;;;3.60;;
4873;SDS011;2451;49.970;9.068;2023-05-14T12:33:19;4.93;;;3.70;;
4873;SDS011;2451;49.970;9.068;2023-05-14T12:35:46;7.00;;;3.78;;
4873;SDS011;2451;49.970;9.068;2023-05-14T12:38:12;6.85;;;3.42;;
4873;SDS011;2451;49.970;9.068;2023-05-14T12:40:38;5.28;;;3.60;;
4873;SDS011;2451;49.970;9.068;2023-05-14T12:43:03;5.90;;;3.78;;
4873;SDS011;2451;49.970;9.068;2023-05-14T12:45:29;6.50;;;3.88;;
4873;SDS011;2451;49.970;9.068;2023-05-14T12:47:54;6.32;;;3.90;;
4873;SDS011;2451;49.970;9.068;2023-05-14T12:50:20;5.38;;;3.85;;
4873;SDS011;2451;49.970;9.068;2023-05-14T12:52:46;5.28;;;3.90;;
4873;SDS011;2451;49.970;9.068;2023-05-14T12:55:11;5.57;;;3.75;;
4873;SDS011;2451;49.970;9.068;2023-05-14T12:57:37;5.63;;;3.97;;
4873;SDS011;2451;49.970;9.068;2023-05-14T13:00:03;7.63;;;3.70;;
4873;SDS011;2451;49.970;9.068;2023-05-14T13:02:33;3.80;;;3.17;;
4873;SDS011;2451;49.970;9.068;2023-05-14T13:04:59;4.28;;;3.40;;
4873;SDS011;2451;49.970;9.068;2023-05-14T13:07:26;4.93;;;3.30;;
4873;SDS011;2451;49.970;9.068;2023-05-14T13:09:54;5.93;;;3.08;;
4873;SDS011;2451;49.970;9.068;2023-05-14T13:12:20;5.75;;;3.15;;
4873;SDS011;2451;49.970;9.068;2023-05-14T13:14:45;6.00;;;3.28;;
4873;SDS011;2451;49.970;9.068;2023-05-14T13:17:11;4.50;;;3.10;;
4873;SDS011;2451;49.970;9.068;2023-05-14T13:19:36;5.90;;;3.20;;
4873;SDS011;2451;49.970;9.068;2023-05-14T13:22:02;3.78;;;3.25;;
4873;SDS011;2451;49.970;9.068;2023-05-14T13:24:27;4.53;;;3.28;;
4873;SDS011;2451;49.970;9.068;2023-05-14T13:26:53;4.38;;;3.50;;
4873;SDS011;2451;49.970;9.068;2023-05-14T13:29:18;4.47;;;3.05;;
4873;SDS011;2451;49.970;9.068;2023-05-14T13:31:44;5.68;;;3.05;;
4873;SDS011;2451;49.970;9.068;2023-05-14T13:34:09;5.88;;;3.00;;
4873;SDS011;2451;49.970;9.068;2023-05-14T13:36:35;4.88;;;3.15;;
4873;SDS011;2451;49.970;9.068;2023-05-14T13:39:04;5.33;;;3.03;;
4873;SDS011;2451;49.970;9.068;2023-05-14T13:41:30;4.88;;;3.40;;
4873;SDS011;2451;49.970;9.068;2023-05-14T13:43:58;4.57;;;3.17;;
4873;SDS011;2451;49.970;9.068;2023-05-14T13:46:24;4.18;;;3.08;;
4873;SDS011;2451;49.970;9.068;2023-05-14T13:48:50;3.53;;;3.00;;
4873;SDS011;2451;49.970;9.068;2023-05-14T13:51:15;4.45;;;2.95;;
4873;SDS011;2451;49.970;9.068;2023-05-14T13:53:41;4.00;;;3.03;;
4873;SDS011;2451;49.970;9.068;2023-05-14T13:56:06;3.78;;;2.97;;
4873;SDS011;2451;49.970;9.068;2023-05-14T13:58:32;5.20;;;3.33;;
4873;SDS011;2451;49.970;9.068;2023-05-14T14:00:58;5.47;;;3.40;;
4873;SDS011;2451;49.970;9.068;2023-05-14T14:03:23;3.65;;;3.03;;
4873;SDS011;2451;49.970;9.068;2023-05-14T14:05:49;3.85;;;2.78;;
4873;SDS011;2451;49.970;9.068;2023-05-14T14:08:16;3.85;;;3.00;;
4873;SDS011;2451;49.970;9.068;2023-05-14T14:10:41;3.28;;;2.85;;
4873;SDS011;2451;49.970;9.068;2023-05-14T14:13:07;7.10;;;4.93;;
4873;SDS011;2451;49.970;9.068;2023-05-14T14:15:33;4.72;;;3.05;;
4873;SDS011;2451;49.970;9.068;2023-05-14T14:17:59;6.10;;;2.90;;
4873;SDS011;2451;49.970;9.068;2023-05-14T14:20:25;4.38;;;3.50;;
4873;SDS011;2451;49.970;9.068;2023-05-14T14:22:50;4.82;;;3.30;;
4873;SDS011;2451;49.970;9.068;2023-05-14T14:25:16;4.93;;;3.55;;
4873;SDS011;2451;49.970;9.068;2023-05-14T14:27:41;6.00;;;3.53;;
4873;SDS011;2451;49.970;9.068;2023-05-14T14:30:08;3.72;;;3.00;;
4873;SDS011;2451;49.970;9.068;2023-05-14T14:32:39;4.03;;;3.00;;
4873;SDS011;2451;49.970;9.068;2023-05-14T14:35:12;4.30;;;3.00;;
4873;SDS011;2451;49.970;9.068;2023-05-14T14:37:39;2.83;;;2.47;;
4873;SDS011;2451;49.970;9.068;2023-05-14T14:40:06;4.40;;;3.00;;
4873;SDS011;2451;49.970;9.068;2023-05-14T14:42:33;4.88;;;2.75;;
4873;SDS011;2451;49.970;9.068;2023-05-14T14:44:59;5.13;;;3.47;;
4873;SDS011;2451;49.970;9.068;2023-05-14T14:47:24;4.22;;;2.90;;
4873;SDS011;2451;49.970;9.068;2023-05-14T14:49:50;4.97;;;2.80;;
4873;SDS011;2451;49.970;9.068;2023-05-14T14:52:16;4.22;;;2.97;;
4873;SDS011;2451;49.970;9.068;2023-05-14T14:54:41;3.28;;;2.60;;
4873;SDS011;2451;49.970;9.068;2023-05-14T14:57:07;3.33;;;2.60;;
4873;SDS011;2451;49.970;9.068;2023-05-14T14:59:33;2.85;;;2.45;;
4873;SDS011;2451;49.970;9.068;2023-05-14T15:01:59;4.35;;;2.60;;
4873;SDS011;2451;49.970;9.068;2023-05-14T15:04:25;2.92;;;2.50;;
4873;SDS011;2451;49.970;9.068;2023-05-14T15:06:50;4.18;;;2.70;;
4873;SDS011;2451;49.970;9.068;2023-05-14T15:09:16;3.13;;;2.55;;
4873;SDS011;2451;49.970;9.068;2023-05-14T15:11:41;3.83;;;2.47;;